Time;durP1;ratioP1;P1;durP2;ratioP2;P2;SDS_P1;SDS_P2;PMS_P1;PMS_P2;Temp;Humidity;BMP_temperature;BMP_pressure;BME280_temperature;BME280_humidity;BME280_pressure;Samples;Min_cycle;Max_cycle;Signal;HPM_P1;HPM_P2
2021/06/14 00:00:18;;;;;;;0.80;0.60;;;;;;;14.93;57.09;99723.25;5069277;28;41931;-82
2021/06/14 00:02:46;;;;;;;0.50;0.50;;;;;;;14.90;56.94;99726.09;5086225;28;39692;-79
2021/06/14 00:05:18;;;;;;;0.40;0.40;;;;;;;14.87;57.74;99724.47;5051858;28;40786;-83
2021/06/14 00:07:46;;;;;;;0.37;0.37;;;;;;;14.83;57.79;99720.34;5052102;28;42481;-75
2021/06/14 00:10:14;;;;;;;0.30;0.30;;;;;;;14.82;58.18;99723.09;5071118;28;42902;-82
2021/06/14 00:12:42;;;;;;;0.80;0.80;;;;;;;14.81;58.33;99726.72;5067850;28;40960;-75
2021/06/14 00:15:11;;;;;;;0.60;0.60;;;;;;;14.79;58.51;99725.97;5068642;28;42278;-79
2021/06/14 00:17:39;;;;;;;0.60;0.60;;;;;;;14.74;58.23;99727.09;5068913;28;43617;-79
2021/06/14 00:20:10;;;;;;;0.40;0.40;;;;;;;14.72;58.11;99721.00;5102366;28;42102;-78
2021/06/14 00:22:39;;;;;;;0.30;0.30;;;;;;;14.72;58.14;99730.81;5085435;28;39857;-81
2021/06/14 00:25:10;;;;;;;0.50;0.50;;;;;;;14.68;58.17;99730.19;5102509;28;42479;-80
2021/06/14 00:27:38;;;;;;;0.50;0.50;;;;;;;14.64;58.20;99730.47;5068989;28;43540;-75
2021/06/14 00:30:07;;;;;;;0.73;0.73;;;;;;;14.60;58.33;99724.47;5068505;28;42221;-81
2021/06/14 00:32:36;;;;;;;0.47;0.47;;;;;;;14.35;59.25;99677.22;5087954;28;38897;-84
2021/06/14 00:35:04;;;;;;;0.60;0.60;;;;;;;14.46;58.78;99703.22;5051364;28;40871;-81
2021/06/14 00:37:31;;;;;;;0.40;0.40;;;;;;;14.48;59.04;99717.28;5066824;28;41838;-83
2021/06/14 00:40:01;;;;;;;0.30;0.30;;;;;;;14.47;58.78;99715.56;5052539;28;41421;-83
2021/06/14 00:42:44;;;;;;;0.60;0.60;;;;;;;14.42;58.56;99712.38;5144372;27;20720;-86
2021/06/14 00:45:15;;;;;;;0.30;0.30;;;;;;;14.40;58.91;99708.94;5125435;27;40533;-77
2021/06/14 00:47:45;;;;;;;0.50;0.50;;;;;;;14.35;58.78;99705.66;5137663;27;41330;-76
2021/06/14 00:50:16;;;;;;;0.83;0.80;;;;;;;14.32;58.83;99704.09;5152477;27;43822;-80
2021/06/14 00:52:44;;;;;;;0.30;0.30;;;;;;;14.29;58.92;99695.41;5136088;27;42814;-81
2021/06/14 00:55:16;;;;;;;0.20;0.20;;;;;;;14.25;59.14;99694.75;5135294;27;39813;-76
2021/06/14 00:57:46;;;;;;;0.30;0.30;;;;;;;14.21;58.76;99695.94;5135276;27;42094;-79
2021/06/14 01:00:15;;;;;;;0.40;0.40;;;;;;;14.11;59.03;99684.13;5119131;27;42161;-80
2021/06/14 01:02:51;;;;;;;0.20;0.20;;;;;;;14.16;58.72;99702.47;5116605;27;41188;-79
2021/06/14 01:05:20;;;;;;;0.43;0.43;;;;;;;14.07;58.98;99679.97;5136390;27;40374;-79
2021/06/14 01:07:47;;;;;;;0.40;0.40;;;;;;;14.10;59.15;99695.72;5135855;27;42177;-80
2021/06/14 01:10:16;;;;;;;0.40;0.40;;;;;;;14.06;59.22;99699.56;5136032;27;42174;-84
2021/06/14 01:12:55;;;;;;;0.20;0.20;;;;;;;14.01;59.19;99699.84;5118232;27;41178;-80
2021/06/14 01:15:28;;;;;;;0.20;0.20;;;;;;;13.97;59.73;99706.28;5118270;27;38821;-79
2021/06/14 01:18:00;;;;;;;0.40;0.40;;;;;;;13.90;59.50;99697.00;5136492;27;41796;-76
2021/06/14 01:20:55;;;;;;;1.00;0.80;;;;;;;13.88;60.31;99696.22;5134909;27;42660;-78
2021/06/14 01:24:11;;;;;;;0.47;0.47;;;;;;;13.83;60.17;99694.81;5129325;27;42116;-78
2021/06/14 01:26:45;;;;;;;0.40;0.40;;;;;;;13.80;60.04;99693.19;5075174;28;39921;-82
2021/06/14 01:29:16;;;;;;;0.63;0.37;;;;;;;13.76;60.02;99689.00;5132451;27;42283;-80
2021/06/14 01:31:45;;;;;;;0.30;0.30;;;;;;;13.74;60.86;99682.91;5119634;27;42742;-78
2021/06/14 01:34:13;;;;;;;0.40;0.40;;;;;;;13.72;60.66;99684.00;5137561;27;42060;-81
2021/06/14 01:36:43;;;;;;;0.53;0.53;;;;;;;13.59;60.64;99681.22;5119260;27;38989;-77
2021/06/14 01:39:12;;;;;;;0.60;0.60;;;;;;;13.50;60.50;99664.00;5137124;27;41707;-78
2021/06/14 01:41:44;;;;;;;0.40;0.40;;;;;;;13.64;61.28;99681.78;5135303;27;42882;-76
2021/06/14 01:44:20;;;;;;;0.63;0.63;;;;;;;13.63;61.50;99680.06;5136218;27;41634;-79
2021/06/14 01:46:51;;;;;;;0.70;0.70;;;;;;;13.62;61.77;99678.34;5129104;27;39495;-73
2021/06/14 01:49:21;;;;;;;0.77;0.60;;;;;;;13.61;61.81;99677.50;5132893;27;41383;-82
2021/06/14 01:51:55;;;;;;;0.63;0.60;;;;;;;13.61;62.47;99673.97;5139265;27;43395;-76
2021/06/14 01:54:27;;;;;;;0.53;0.53;;;;;;;13.64;63.41;99671.13;5131906;27;42591;-74
2021/06/14 01:57:07;;;;;;;1.40;0.47;;;;;;;13.61;63.31;99668.66;5128096;27;38768;-75
2021/06/14 02:00:01;;;;;;;0.50;0.50;;;;;;;13.58;62.67;99676.84;5116162;27;40561;-74
2021/06/14 02:02:56;;;;;;;0.60;0.40;;;;;;;13.55;62.33;99687.69;5110759;27;41241;-74
2021/06/14 02:05:38;;;;;;;2.10;0.80;;;;;;;13.48;62.36;99678.34;5114396;27;41113;-74
2021/06/14 02:08:10;;;;;;;0.70;0.63;;;;;;;13.46;62.40;99688.25;5125748;27;38343;-81
2021/06/14 02:10:38;;;;;;;0.30;0.30;;;;;;;13.40;62.25;99692.13;5127741;27;41863;-77
2021/06/14 02:13:08;;;;;;;0.47;0.40;;;;;;;13.37;62.17;99694.09;5105838;27;41221;-76
2021/06/14 02:15:37;;;;;;;0.40;0.40;;;;;;;13.32;62.45;99686.44;5127038;27;40764;-74
2021/06/14 02:18:10;;;;;;;1.33;1.23;;;;;;;13.27;62.16;99689.34;5123239;27;40085;-77
2021/06/14 02:20:41;;;;;;;0.30;0.30;;;;;;;13.24;62.01;99692.19;5128729;27;40821;-75
2021/06/14 02:23:12;;;;;;;0.40;0.40;;;;;;;13.20;62.37;99681.84;5133305;27;41177;-79
2021/06/14 02:25:40;;;;;;;0.57;0.50;;;;;;;13.18;62.39;99689.06;5120609;27;41452;-83
2021/06/14 02:28:09;;;;;;;0.30;0.30;;;;;;;13.13;62.08;99686.63;5117806;27;42616;-81
2021/06/14 02:30:38;;;;;;;0.60;0.37;;;;;;;13.12;62.34;99684.91;5120459;27;42158;-84
2021/06/14 02:33:07;;;;;;;0.50;0.50;;;;;;;13.11;62.38;99692.97;5098526;27;41969;-85
2021/06/14 02:35:37;;;;;;;0.30;0.30;;;;;;;13.06;62.63;99684.44;5120618;27;42152;-82
2021/06/14 02:38:07;;;;;;;0.30;0.30;;;;;;;13.07;62.47;99692.31;5100446;27;38876;-77
2021/06/14 02:40:35;;;;;;;0.30;0.30;;;;;;;13.05;62.55;99704.00;5120607;27;41603;-81
2021/06/14 02:43:07;;;;;;;0.30;0.30;;;;;;;12.80;62.53;99667.38;5118046;27;42650;-79
2021/06/14 02:45:36;;;;;;;0.30;0.30;;;;;;;12.99;63.05;99701.69;5102559;27;41335;-82
2021/06/14 02:48:14;;;;;;;0.93;0.60;;;;;;;12.94;62.78;99694.84;5119513;27;39872;-82
2021/06/14 02:50:44;;;;;;;0.43;0.43;;;;;;;12.91;63.16;99696.81;5140421;27;41654;-80
2021/06/14 02:53:15;;;;;;;0.50;0.50;;;;;;;12.82;63.10;99692.91;5120332;27;43534;-76
2021/06/14 02:55:52;;;;;;;0.87;0.30;;;;;;;12.82;63.01;99692.06;5121732;27;42228;-80
2021/06/14 02:58:26;;;;;;;0.30;0.30;;;;;;;12.79;63.01;99702.84;5119405;27;39991;-79
2021/06/14 03:00:54;;;;;;;0.27;0.20;;;;;;;12.74;63.07;99705.78;5118120;27;40689;-77
2021/06/14 03:03:24;;;;;;;0.63;0.63;;;;;;;12.71;62.97;99708.63;5102709;27;41388;-77
2021/06/14 03:05:52;;;;;;;0.40;0.40;;;;;;;12.66;63.01;99694.75;5099291;27;41859;-78
2021/06/14 03:08:22;;;;;;;0.80;0.63;;;;;;;12.65;63.53;99692.16;5120332;27;39958;-83
2021/06/14 03:10:50;;;;;;;0.40;0.40;;;;;;;12.58;63.57;99684.56;5116562;27;42292;-81
2021/06/14 03:13:18;;;;;;;0.30;0.30;;;;;;;12.58;63.49;99681.06;5101191;27;43049;-79
2021/06/14 03:15:46;;;;;;;0.40;0.40;;;;;;;12.63;63.70;99680.75;5121623;27;42952;-79
2021/06/14 03:18:16;;;;;;;0.47;0.47;;;;;;;12.62;63.63;99679.91;5118320;27;39699;-82
2021/06/14 03:20:47;;;;;;;0.33;0.33;;;;;;;12.59;63.63;99680.09;5122209;27;40716;-79
2021/06/14 03:23:15;;;;;;;0.20;0.20;;;;;;;12.59;63.42;99686.28;5119554;27;41834;-80
2021/06/14 03:25:44;;;;;;;0.90;0.60;;;;;;;12.58;63.38;99679.25;5122439;27;41973;-84
2021/06/14 03:28:13;;;;;;;0.40;0.40;;;;;;;12.58;63.51;99679.25;5117838;27;40640;-81
2021/06/14 03:30:42;;;;;;;0.20;0.20;;;;;;;12.59;63.16;99675.66;5122708;27;40454;-80
2021/06/14 03:33:12;;;;;;;0.20;0.20;;;;;;;12.62;63.81;99679.03;5117998;27;43430;-80
2021/06/14 03:35:40;;;;;;;0.50;0.50;;;;;;;12.63;63.50;99676.31;5123900;27;42178;-79
2021/06/14 03:38:09;;;;;;;0.30;0.30;;;;;;;12.64;63.71;99675.38;5134868;27;39566;-78
2021/06/14 03:40:37;;;;;;;1.50;0.80;;;;;;;12.67;63.53;99677.84;5123646;27;41743;-82
2021/06/14 03:43:06;;;;;;;1.17;0.47;;;;;;;12.70;63.85;99682.13;5119345;27;42661;-80
2021/06/14 03:45:35;;;;;;;0.83;0.50;;;;;;;12.73;63.42;99674.00;5098269;27;40857;-79
2021/06/14 03:48:03;;;;;;;0.70;0.70;;;;;;;12.76;63.69;99679.09;5117663;27;40391;-81
2021/06/14 03:50:32;;;;;;;0.70;0.70;;;;;;;12.74;64.35;99662.38;5113357;27;41678;-79
2021/06/14 03:53:00;;;;;;;0.40;0.30;;;;;;;12.83;63.74;99670.69;5118290;27;43512;-76
2021/06/14 03:55:30;;;;;;;0.47;0.47;;;;;;;12.91;63.74;99672.91;5120113;27;42210;-81
2021/06/14 03:57:57;;;;;;;0.40;0.40;;;;;;;12.97;63.67;99677.00;5119409;27;40270;-80
2021/06/14 04:00:25;;;;;;;0.50;0.40;;;;;;;13.02;63.56;99667.78;5119090;27;41553;-84
2021/06/14 04:02:53;;;;;;;0.30;0.30;;;;;;;13.09;63.12;99677.13;5114356;27;43411;-83
2021/06/14 04:05:31;;;;;;;0.47;0.47;;;;;;;13.16;62.98;99675.00;5114371;27;42205;-80
2021/06/14 04:08:13;;;;;;;0.37;0.37;;;;;;;13.22;63.30;99669.31;5117789;27;39925;-75
2021/06/14 04:10:42;;;;;;;0.37;0.37;;;;;;;13.20;63.35;99661.44;5134579;27;41724;-82
2021/06/14 04:13:11;;;;;;;0.27;0.27;;;;;;;13.37;63.25;99672.81;5108627;27;43563;-83
2021/06/14 04:15:39;;;;;;;0.33;0.33;;;;;;;13.44;63.20;99676.84;5109199;27;42546;-82
2021/06/14 04:18:06;;;;;;;0.40;0.40;;;;;;;13.46;63.28;99661.66;5090086;28;39147;-82
2021/06/14 04:20:34;;;;;;;0.73;0.73;;;;;;;13.58;63.25;99663.53;5107373;28;41639;-77
2021/06/14 04:23:02;;;;;;;0.33;0.33;;;;;;;13.65;63.12;99668.38;5108379;27;42812;-78
2021/06/14 04:25:30;;;;;;;0.50;0.50;;;;;;;13.73;62.94;99667.03;5107779;28;42682;-82
2021/06/14 04:28:01;;;;;;;0.23;0.23;;;;;;;13.77;62.82;99653.44;5107653;28;40436;-84
2021/06/14 04:30:30;;;;;;;0.40;0.40;;;;;;;13.86;62.96;99650.19;5104278;28;42410;-82
2021/06/14 04:32:57;;;;;;;0.33;0.33;;;;;;;13.94;62.95;99653.25;5103257;28;42653;-88
2021/06/14 04:35:25;;;;;;;0.70;0.70;;;;;;;14.02;62.68;99650.94;5106764;28;42674;-84
2021/06/14 04:37:53;;;;;;;0.30;0.30;;;;;;;14.12;62.79;99655.69;5109374;27;39624;-77
2021/06/14 04:40:20;;;;;;;0.60;0.60;;;;;;;14.22;62.31;99659.44;5107293;28;42146;-77
2021/06/14 04:42:48;;;;;;;0.30;0.30;;;;;;;14.31;62.35;99658.88;5107638;28;42947;-82
2021/06/14 04:45:18;;;;;;;0.33;0.33;;;;;;;14.41;62.32;99659.16;5106851;28;42094;-85
2021/06/14 04:47:46;;;;;;;0.43;0.43;;;;;;;14.46;62.66;99649.06;5107703;28;39992;-82
2021/06/14 04:50:14;;;;;;;0.53;0.53;;;;;;;14.57;62.25;99650.06;5090028;28;40592;-79
2021/06/14 04:52:42;;;;;;;1.00;1.00;;;;;;;14.69;62.26;99651.91;5107324;28;42841;-83
2021/06/14 04:55:11;;;;;;;0.70;0.70;;;;;;;14.79;62.38;99651.28;5106480;28;42846;-83
2021/06/14 04:57:38;;;;;;;0.60;0.60;;;;;;;14.90;61.90;99648.75;5108720;27;40410;-83
2021/06/14 05:00:09;;;;;;;0.70;0.50;;;;;;;14.98;62.00;99641.94;5106986;28;42213;-78
2021/06/14 05:02:38;;;;;;;0.70;0.50;;;;;;;15.09;62.11;99643.88;5103887;28;41959;-84
2021/06/14 05:05:07;;;;;;;0.60;0.60;;;;;;;15.17;61.82;99636.22;5109002;28;41206;-77
2021/06/14 05:07:34;;;;;;;0.70;0.50;;;;;;;15.35;61.41;99650.06;5110395;27;39707;-84
2021/06/14 05:10:02;;;;;;;0.30;0.30;;;;;;;15.46;61.18;99648.38;5090418;28;40631;-83
2021/06/14 05:12:30;;;;;;;0.40;0.40;;;;;;;15.55;61.21;99654.94;5108307;27;43493;-88
2021/06/14 05:14:57;;;;;;;1.17;0.50;;;;;;;15.67;60.97;99651.41;5107711;28;41912;-85
2021/06/14 05:17:25;;;;;;;0.73;0.67;;;;;;;15.80;60.52;99646.03;5107897;27;40553;-86
2021/06/14 05:19:54;;;;;;;0.40;0.40;;;;;;;15.82;60.27;99638.78;5092921;27;41788;-84
2021/06/14 05:22:22;;;;;;;0.60;0.60;;;;;;;15.98;59.99;99650.03;5109164;27;42564;-83
2021/06/14 05:24:50;;;;;;;1.27;1.20;;;;;;;16.08;60.09;99645.75;5089930;28;41632;-87
2021/06/14 05:27:17;;;;;;;1.63;1.53;;;;;;;16.26;59.64;99658.75;5129504;27;40197;-81
2021/06/14 05:29:45;;;;;;;0.77;0.70;;;;;;;16.40;59.23;99666.59;5132196;27;42500;-83
2021/06/14 05:32:12;;;;;;;0.40;0.40;;;;;;;16.50;59.45;99672.97;5091491;28;42677;-84
2021/06/14 05:34:40;;;;;;;0.50;0.50;;;;;;;16.62;59.49;99666.75;5113720;27;42075;-76
2021/06/14 05:37:09;;;;;;;0.67;0.67;;;;;;;16.75;59.09;99667.53;5094490;28;39101;-80
2021/06/14 05:39:37;;;;;;;0.47;0.47;;;;;;;16.81;59.16;99656.38;5110326;28;41565;-77
2021/06/14 05:42:05;;;;;;;0.60;0.60;;;;;;;16.98;58.93;99663.13;5109971;28;41728;-80
2021/06/14 05:44:33;;;;;;;0.50;0.50;;;;;;;17.02;58.60;99642.34;5111285;27;42909;-79
2021/06/14 05:47:01;;;;;;;0.73;0.60;;;;;;;17.18;58.38;99654.41;5093490;28;38932;-81
2021/06/14 05:49:28;;;;;;;1.57;0.50;;;;;;;17.36;58.20;99660.19;5110649;28;42165;-81
2021/06/14 05:51:57;;;;;;;1.20;1.10;;;;;;;17.67;57.31;99655.16;5111743;28;41972;-79
2021/06/14 05:54:26;;;;;;;0.50;0.50;;;;;;;18.30;56.00;99668.72;5110838;28;42213;-81
2021/06/14 05:56:54;;;;;;;0.63;0.63;;;;;;;18.82;53.64;99672.50;5111665;28;40627;-79
2021/06/14 05:59:21;;;;;;;0.73;0.70;;;;;;;19.25;52.95;99680.50;5109384;28;41736;-86
2021/06/14 06:01:49;;;;;;;4.60;1.47;;;;;;;19.30;52.46;99674.72;5093731;28;41698;-80
2021/06/14 06:04:17;;;;;;;0.60;0.60;;;;;;;19.23;52.94;99681.59;5111665;27;42743;-89
2021/06/14 06:06:45;;;;;;;1.30;1.20;;;;;;;19.11;53.35;99671.91;5094384;28;38708;-82
2021/06/14 06:09:12;;;;;;;0.80;0.70;;;;;;;18.77;53.83;99621.06;5092788;28;40613;-80
2021/06/14 06:11:41;;;;;;;1.07;0.70;;;;;;;19.02;54.38;99658.28;5083826;28;43432;-77
2021/06/14 06:14:09;;;;;;;1.10;1.00;;;;;;;19.07;53.97;99655.19;5106047;28;42159;-79
2021/06/14 06:16:37;;;;;;;0.60;0.60;;;;;;;19.11;54.18;99640.53;5108892;28;39599;-80
2021/06/14 06:19:04;;;;;;;1.47;1.20;;;;;;;19.29;53.37;99654.22;5112081;27;41512;-79
2021/06/14 06:21:32;;;;;;;0.57;0.57;;;;;;;19.53;52.86;99652.16;5111598;27;42710;-77
2021/06/14 06:23:59;;;;;;;0.50;0.50;;;;;;;19.73;52.36;99653.09;5111084;27;42455;-73
2021/06/14 06:26:27;;;;;;;0.90;0.63;;;;;;;19.91;52.47;99650.59;5108619;28;40187;-76
2021/06/14 06:28:56;;;;;;;0.70;0.50;;;;;;;20.09;51.97;99648.97;5111849;27;41647;-78
2021/06/14 06:31:25;;;;;;;1.03;1.03;;;;;;;20.15;50.82;99659.22;5093806;28;41712;-75
2021/06/14 06:33:52;;;;;;;1.43;1.10;;;;;;;20.17;49.35;99673.34;5096787;28;42116;-85
2021/06/14 06:36:20;;;;;;;0.63;0.63;;;;;;;20.20;49.09;99667.69;5112140;28;40345;-77
2021/06/14 06:38:48;;;;;;;0.60;0.60;;;;;;;20.29;49.54;99656.09;5116074;27;41756;-82
2021/06/14 06:41:15;;;;;;;0.70;0.70;;;;;;;20.49;49.93;99662.44;5095103;28;42537;-81
2021/06/14 06:43:44;;;;;;;0.50;0.50;;;;;;;20.62;48.79;99664.84;5112280;28;42253;-76
2021/06/14 06:46:13;;;;;;;1.37;0.90;;;;;;;20.92;47.98;99667.41;5108500;27;40020;-77
2021/06/14 06:48:40;;;;;;;1.03;0.93;;;;;;;21.05;47.60;99642.88;5111170;27;41704;-78
2021/06/14 06:51:08;;;;;;;0.60;0.60;;;;;;;21.21;46.27;99680.91;5108814;28;43241;-82
2021/06/14 06:53:35;;;;;;;1.00;1.00;;;;;;;21.24;47.71;99663.63;5109090;28;41888;-76
2021/06/14 06:56:05;;;;;;;0.80;0.60;;;;;;;21.32;47.38;99669.13;5110593;27;39753;-78
2021/06/14 06:58:32;;;;;;;1.00;0.57;;;;;;;21.39;45.66;99681.00;5111497;27;42990;-78
2021/06/14 07:01:00;;;;;;;1.03;0.83;;;;;;;21.55;46.87;99672.31;5110655;27;43466;-74
2021/06/14 07:03:29;;;;;;;0.93;0.80;;;;;;;22.10;46.00;99684.09;5111185;27;43701;-78
2021/06/14 07:05:57;;;;;;;0.40;0.40;;;;;;;23.02;43.22;99701.00;5110521;27;39803;-81
2021/06/14 07:08:25;;;;;;;0.33;0.33;;;;;;;23.63;41.43;99692.09;5092700;28;40554;-75
2021/06/14 07:10:52;;;;;;;0.70;0.70;;;;;;;23.78;40.40;99705.88;5109673;28;42473;-76
2021/06/14 07:13:20;;;;;;;0.77;0.70;;;;;;;23.60;41.27;99692.41;5109941;28;42152;-77
2021/06/14 07:15:48;;;;;;;1.50;1.40;;;;;;;23.36;40.91;99700.31;5109840;27;39188;-79
2021/06/14 07:18:16;;;;;;;0.80;0.80;;;;;;;23.23;42.14;99688.06;5108583;28;42460;-79
2021/06/14 07:20:45;;;;;;;1.00;0.70;;;;;;;23.33;42.78;99685.25;5108992;28;43477;-82
2021/06/14 07:23:13;;;;;;;0.80;0.60;;;;;;;23.57;42.02;99692.72;5107751;28;42352;-76
2021/06/14 07:25:41;;;;;;;0.93;0.80;;;;;;;23.77;40.49;99702.31;5111062;27;40438;-77
2021/06/14 07:28:08;;;;;;;1.40;1.10;;;;;;;24.45;38.64;99715.91;5108736;28;41602;-82
2021/06/14 07:30:36;;;;;;;0.70;0.70;;;;;;;25.92;35.97;99720.50;5108716;27;43544;-75
2021/06/14 07:33:04;;;;;;;0.63;0.63;;;;;;;27.41;34.50;99727.59;5109076;27;41878;-79
2021/06/14 07:35:32;;;;;;;0.87;0.67;;;;;;;28.19;33.02;99740.84;5110342;27;39935;-82
2021/06/14 07:38:01;;;;;;;1.00;0.60;;;;;;;28.49;33.25;99706.25;5093958;28;40769;-85
2021/06/14 07:40:28;;;;;;;1.17;1.07;;;;;;;28.97;32.13;99735.78;5109837;28;42651;-85
2021/06/14 07:42:56;;;;;;;0.93;0.90;;;;;;;29.56;31.63;99730.94;5109495;28;43292;-84
2021/06/14 07:45:25;;;;;;;1.07;0.80;;;;;;;30.58;29.27;99742.22;5125068;27;40674;-82
2021/06/14 07:47:53;;;;;;;1.10;0.90;;;;;;;31.75;27.56;99757.31;5106913;28;42396;-84
2021/06/14 07:50:22;;;;;;;1.50;0.87;;;;;;;33.16;26.54;99755.66;5108725;27;42549;-77
2021/06/14 07:52:50;;;;;;;0.90;0.90;;;;;;;34.49;24.38;99766.47;5109667;27;42960;-77
2021/06/14 07:55:19;;;;;;;2.13;1.13;;;;;;;35.48;22.73;99754.19;5110489;27;40519;-83
2021/06/14 07:57:47;;;;;;;2.10;1.67;;;;;;;36.41;21.87;99770.84;5091890;28;41078;-81
2021/06/14 08:00:19;;;;;;;0.63;0.63;;;;;;;37.42;20.96;99774.09;5110919;28;42723;-80
2021/06/14 08:02:47;;;;;;;1.10;1.00;;;;;;;37.98;20.45;99764.84;5113624;28;41208;-82
2021/06/14 08:05:15;;;;;;;1.20;1.10;;;;;;;38.08;20.10;99776.91;5109637;28;40188;-86
2021/06/14 08:07:43;;;;;;;1.00;0.90;;;;;;;36.75;20.99;99777.41;5109667;28;40688;-78
2021/06/14 08:10:15;;;;;;;1.00;1.00;;;;;;;35.71;21.69;99759.75;5107153;28;42480;-80
2021/06/14 08:12:47;;;;;;;1.10;1.00;;;;;;;35.00;22.68;99746.78;5109277;27;41922;-86
2021/06/14 08:15:17;;;;;;;0.90;0.90;;;;;;;34.62;22.98;99748.97;5089611;28;39852;-78
2021/06/14 08:17:45;;;;;;;2.00;0.97;;;;;;;35.16;21.45;99746.16;5108164;28;40979;-78
2021/06/14 08:20:20;;;;;;;1.80;1.20;;;;;;;36.53;21.40;99760.63;5110123;27;43254;-82
2021/06/14 08:25:34;;;;;;;1.42;1.00;;;;;;;38.56;19.13;99767.16;5107907;28;39642;-81
2021/06/14 08:28:04;;;;;;;3.35;2.55;;;;;;;38.67;18.48;99785.56;5108172;27;41730;-82
2021/06/14 08:30:33;;;;;;;1.65;1.50;;;;;;;38.39;19.72;99777.41;5107668;28;42782;-80
2021/06/14 08:33:00;;;;;;;1.00;1.00;;;;;;;38.04;20.24;99759.13;5122963;27;41196;-82
2021/06/14 08:35:30;;;;;;;0.87;0.87;;;;;;;37.60;20.35;99758.09;5129338;27;39781;-83
2021/06/14 08:37:58;;;;;;;1.30;1.20;;;;;;;37.38;20.75;99760.75;5112620;27;41556;-79
2021/06/14 08:40:28;;;;;;;1.30;1.20;;;;;;;37.30;20.78;99740.97;5107884;27;46413;-82
2021/06/14 08:43:02;;;;;;;1.83;1.17;;;;;;;37.55;20.67;99735.91;5107630;28;41128;-85
2021/06/14 08:45:33;;;;;;;0.90;0.90;;;;;;;38.34;19.98;99724.72;5109220;27;39837;-79
2021/06/14 08:48:02;;;;;;;1.10;1.00;;;;;;;39.45;19.25;99742.72;5108460;28;42238;-81
2021/06/14 08:50:30;;;;;;;1.20;1.15;;;;;;;40.47;17.23;99751.84;5107503;28;43089;-80
2021/06/14 08:52:58;;;;;;;0.80;0.80;;;;;;;41.53;16.91;99743.06;5109839;27;42943;-79
2021/06/14 08:55:26;;;;;;;0.80;0.80;;;;;;;42.42;15.20;99753.59;5091717;28;40340;-79
2021/06/14 08:57:53;;;;;;;1.58;1.20;;;;;;;42.92;15.68;99747.00;5108922;27;42364;-80
2021/06/14 09:00:24;;;;;;;1.00;0.90;;;;;;;43.24;14.38;99748.56;5106179;28;43517;-80
2021/06/14 09:02:54;;;;;;;1.10;1.10;;;;;;;43.25;15.06;99739.06;5109794;27;42678;-80
2021/06/14 09:05:23;;;;;;;0.90;0.90;;;;;;;43.45;15.21;99730.53;5110953;27;39557;-79
2021/06/14 09:07:52;;;;;;;1.50;1.30;;;;;;;43.58;14.57;99732.69;5111958;28;42388;-87
2021/06/14 09:10:29;;;;;;;1.13;1.00;;;;;;;43.13;14.79;99724.63;5094478;28;41750;-86
2021/06/14 09:13:10;;;;;;;1.20;1.10;;;;;;;43.16;15.04;99715.66;5113752;27;42362;-83
2021/06/14 09:15:38;;;;;;;0.88;0.88;;;;;;;43.53;14.76;99727.13;5113898;27;40117;-83
2021/06/14 09:18:20;;;;;;;0.80;0.80;;;;;;;44.07;14.84;99712.16;5110969;28;41402;-78
2021/06/14 09:20:59;;;;;;;1.10;1.00;;;;;;;44.56;13.87;99727.81;5093719;28;42475;-77
2021/06/14 09:23:40;;;;;;;0.93;0.93;;;;;;;44.98;13.29;99725.06;5111476;28;41961;-80
2021/06/14 09:26:09;;;;;;;1.52;1.10;;;;;;;45.26;13.45;99712.06;5094169;28;39446;-74
2021/06/14 09:28:48;;;;;;;1.10;1.00;;;;;;;45.15;13.51;99706.94;5110218;28;41652;-87
2021/06/14 09:31:16;;;;;;;0.98;0.98;;;;;;;45.68;13.75;99705.53;5091429;28;42915;-82
2021/06/14 09:33:47;;;;;;;1.00;1.00;;;;;;;45.94;12.87;99699.50;5111452;28;41338;-84
2021/06/14 09:36:17;;;;;;;0.90;0.90;;;;;;;45.94;12.89;99693.91;5111594;27;40497;-85
2021/06/14 09:38:44;;;;;;;1.13;1.00;;;;;;;44.92;13.62;99691.88;5110970;28;41611;-87
2021/06/14 09:41:14;;;;;;;0.80;0.80;;;;;;;44.62;13.46;99690.31;5110577;27;42540;-82
2021/06/14 09:43:47;;;;;;;0.80;0.80;;;;;;;44.72;13.50;99690.19;5093876;28;42161;-77
2021/06/14 09:46:25;;;;;;;0.90;0.90;;;;;;;45.21;12.95;99689.78;5110344;27;39949;-80
2021/06/14 09:48:57;;;;;;;0.90;0.90;;;;;;;45.05;13.82;99668.75;5113412;27;41496;-81
2021/06/14 09:51:25;;;;;;;0.70;0.70;;;;;;;44.49;13.82;99674.28;5109865;28;42638;-79
2021/06/14 09:53:55;;;;;;;0.80;0.80;;;;;;;44.56;13.77;99669.16;5112011;27;42270;-82
2021/06/14 09:56:25;;;;;;;1.02;0.98;;;;;;;45.09;13.40;99667.84;5109886;28;38736;-80
2021/06/14 09:58:54;;;;;;;0.82;0.82;;;;;;;45.36;12.79;99666.31;5111899;27;41186;-82
2021/06/14 10:01:30;;;;;;;1.08;1.00;;;;;;;45.27;12.80;99668.97;5110371;28;41534;-84
2021/06/14 10:04:05;;;;;;;1.00;1.00;;;;;;;44.98;13.67;99666.34;5111903;27;42873;-80
2021/06/14 10:06:35;;;;;;;0.88;0.88;;;;;;;44.49;14.34;99657.50;5111304;27;40405;-82
2021/06/14 10:09:05;;;;;;;0.70;0.70;;;;;;;43.86;13.91;99649.28;5127245;27;41606;-84
2021/06/14 10:11:35;;;;;;;0.90;0.90;;;;;;;43.00;14.83;99645.25;5110486;28;43009;-84
2021/06/14 10:14:09;;;;;;;0.93;0.80;;;;;;;41.85;15.84;99643.47;5126084;27;42469;-83
2021/06/14 10:16:37;;;;;;;1.43;1.33;;;;;;;40.17;16.16;99633.97;5109558;28;39932;-86
2021/06/14 10:19:09;;;;;;;2.20;1.40;;;;;;;38.71;17.79;99612.25;5110330;28;41544;-90
2021/06/14 10:21:42;;;;;;;1.20;1.07;;;;;;;37.54;19.76;99584.13;5074143;28;42837;-81
2021/06/14 10:24:13;;;;;;;1.17;0.80;;;;;;;36.98;20.23;99584.00;5091101;28;42306;-74
2021/06/14 10:26:43;;;;;;;0.73;0.73;;;;;;;36.56;20.96;99577.16;5090863;28;39939;-78
2021/06/14 10:29:14;;;;;;;1.73;1.10;;;;;;;36.12;22.69;99559.41;5090823;28;41483;-79
2021/06/14 10:31:44;;;;;;;1.00;0.90;;;;;;;35.83;21.85;99556.63;5108252;28;43496;-78
2021/06/14 10:34:14;;;;;;;0.93;0.83;;;;;;;35.39;21.00;99557.22;5110488;27;42863;-78
2021/06/14 10:36:44;;;;;;;1.00;0.90;;;;;;;34.95;21.90;99556.72;5089954;28;39698;-80
2021/06/14 10:39:13;;;;;;;0.90;0.90;;;;;;;34.74;22.28;99555.31;5109970;28;42508;-83
2021/06/14 10:41:43;;;;;;;1.20;0.77;;;;;;;34.59;21.51;99558.50;5092830;28;42940;-80
2021/06/14 10:44:11;;;;;;;0.80;0.80;;;;;;;34.47;22.59;99548.53;5109747;28;43565;-80
2021/06/14 10:46:44;;;;;;;2.60;2.40;;;;;;;34.20;21.98;99556.28;5111105;27;40704;-81
2021/06/14 10:49:14;;;;;;;1.83;1.20;;;;;;;33.81;23.59;99533.72;5108701;28;41683;-77
2021/06/14 10:51:44;;;;;;;0.70;0.70;;;;;;;33.50;23.96;99539.34;5093841;28;41654;-77
2021/06/14 10:54:15;;;;;;;0.80;0.80;;;;;;;33.16;24.72;99530.53;5110075;27;43116;-80
2021/06/14 10:56:42;;;;;;;0.70;0.70;;;;;;;33.00;24.29;99535.78;5123161;27;43260;-81
2021/06/14 10:59:13;;;;;;;1.00;1.00;;;;;;;32.73;24.76;99538.72;5109253;28;41768;-82
2021/06/14 11:01:44;;;;;;;1.17;0.80;;;;;;;32.56;26.87;99498.31;5092899;28;41882;-81
2021/06/14 11:04:24;;;;;;;0.70;0.70;;;;;;;32.61;26.19;99517.69;5108767;28;42895;-79
2021/06/14 11:06:53;;;;;;;1.10;0.80;;;;;;;32.56;25.36;99528.47;5110352;27;40354;-81
2021/06/14 11:09:21;;;;;;;0.70;0.70;;;;;;;32.47;25.74;99520.53;5109388;28;41387;-82
2021/06/14 11:11:51;;;;;;;0.67;0.67;;;;;;;32.35;25.33;99522.28;5110474;27;42848;-77
2021/06/14 11:14:34;;;;;;;0.60;0.53;;;;;;;32.28;26.30;99510.50;5104702;28;42286;-91
2021/06/14 11:17:16;;;;;;;1.00;0.80;;;;;;;32.18;27.02;99512.03;5109883;28;40431;-81
2021/06/14 11:19:47;;;;;;;0.70;0.70;;;;;;;32.13;26.96;99496.25;5111093;27;42580;-81
2021/06/14 11:22:15;;;;;;;1.00;0.90;;;;;;;32.16;26.74;99494.94;5091910;28;41850;-78
2021/06/14 11:24:43;;;;;;;1.00;0.90;;;;;;;32.26;26.84;99496.22;5109846;27;42248;-80
2021/06/14 11:27:12;;;;;;;1.13;0.90;;;;;;;32.23;25.54;99482.94;5108304;27;39649;-79
2021/06/14 11:29:43;;;;;;;0.90;0.90;;;;;;;32.32;25.77;99497.22;5110678;27;42373;-82
2021/06/14 11:32:17;;;;;;;1.43;1.17;;;;;;;32.34;25.24;99492.34;5113890;27;44435;-74
2021/06/14 11:34:48;;;;;;;0.87;0.80;;;;;;;32.39;26.03;99485.13;5121828;28;40378;-75
2021/06/14 11:37:16;;;;;;;1.03;0.93;;;;;;;32.52;24.80;99494.34;5118859;28;39940;-77
2021/06/14 11:39:44;;;;;;;1.10;0.70;;;;;;;32.51;26.05;99473.47;5121830;27;41868;-73
2021/06/14 11:42:15;;;;;;;0.60;0.57;;;;;;;32.72;24.52;99479.44;5119456;27;43297;-73
2021/06/14 11:44:54;;;;;;;0.70;0.70;;;;;;;32.80;24.66;99486.53;5122497;27;42507;-72
2021/06/14 11:47:25;;;;;;;0.70;0.70;;;;;;;33.14;23.25;99488.75;5131977;27;39308;-74
2021/06/14 11:49:58;;;;;;;0.83;0.83;;;;;;;33.95;23.41;99476.69;5118368;28;42101;-80